sensor_id;sensor_type;location;lat;lon;timestamp;pressure;altitude;pressure_sealevel;temperature;humidity
62458;BME280;48509;52.122;5.250;2023-05-11T00:01:08;101433.0;;;14.06;100.0
62458;BME280;48509;52.122;5.250;2023-05-11T00:02:44;101434.0;;;13.99;100.0
62458;BME280;48509;52.122;5.250;2023-05-11T00:04:20;101431.0;;;13.99;100.0
62458;BME280;48509;52.122;5.250;2023-05-11T00:07:33;101430.0;;;13.99;100.0
62458;BME280;48509;52.122;5.250;2023-05-11T00:09:09;101430.0;;;14.05;100.0
62458;BME280;48509;52.122;5.250;2023-05-11T00:10:46;101425.0;;;14.08;100.0
62458;BME280;48509;52.122;5.250;2023-05-11T00:13:58;101428.0;;;14.03;100.0
62458;BME280;48509;52.122;5.250;2023-05-11T00:15:34;101433.0;;;14.2;100.0
62458;BME280;48509;52.122;5.250;2023-05-11T00:17:11;101431.0;;;14.18;100.0
62458;BME280;48509;52.122;5.250;2023-05-11T00:20:23;101430.0;;;14.16;100.0
62458;BME280;48509;52.122;5.250;2023-05-11T00:21:59;101427.0;;;14.48;100.0
62458;BME280;48509;52.122;5.250;2023-05-11T00:23:35;101425.0;;;14.35;100.0
62458;BME280;48509;52.122;5.250;2023-05-11T00:25:12;101418.0;;;14.31;100.0
62458;BME280;48509;52.122;5.250;2023-05-11T00:28:24;101422.0;;;14.23;100.0
62458;BME280;48509;52.122;5.250;2023-05-11T00:30:00;101417.0;;;14.06;100.0
62458;BME280;48509;52.122;5.250;2023-05-11T00:31:36;101416.0;;;13.97;100.0
62458;BME280;48509;52.122;5.250;2023-05-11T00:34:48;101421.0;;;13.94;100.0
62458;BME280;48509;52.122;5.250;2023-05-11T00:36:25;101422.0;;;13.91;100.0
62458;BME280;48509;52.122;5.250;2023-05-11T00:38:01;101419.0;;;13.85;100.0
62458;BME280;48509;52.122;5.250;2023-05-11T00:41:13;101420.0;;;13.82;100.0
62458;BME280;48509;52.122;5.250;2023-05-11T00:42:49;101423.0;;;13.87;100.0
62458;BME280;48509;52.122;5.250;2023-05-11T00:44:25;101427.0;;;13.86;100.0
62458;BME280;48509;52.122;5.250;2023-05-11T00:46:02;101430.0;;;13.8;100.0
62458;BME280;48509;52.122;5.250;2023-05-11T00:49:16;101432.0;;;13.8;100.0
62458;BME280;48509;52.122;5.250;2023-05-11T00:50:52;101432.0;;;13.81;100.0
62458;BME280;48509;52.122;5.250;2023-05-11T00:52:30;101430.0;;;13.78;100.0
62458;BME280;48509;52.122;5.250;2023-05-11T00:55:43;101428.0;;;14.04;100.0
62458;BME280;48509;52.122;5.250;2023-05-11T00:57:20;101424.0;;;13.95;100.0
62458;BME280;48509;52.122;5.250;2023-05-11T00:58:56;101427.0;;;13.85;100.0
62458;BME280;48509;52.122;5.250;2023-05-11T01:02:08;101423.0;;;13.8;100.0
62458;BME280;48509;52.122;5.250;2023-05-11T01:03:45;101419.0;;;13.77;100.0
62458;BME280;48509;52.122;5.250;2023-05-11T01:05:23;101425.0;;;13.78;100.0
62458;BME280;48509;52.122;5.250;2023-05-11T01:07:07;101423.0;;;13.72;100.0
62458;BME280;48509;52.122;5.250;2023-05-11T01:10:31;101426.0;;;13.72;100.0
62458;BME280;48509;52.122;5.250;2023-05-11T01:12:20;101427.0;;;13.69;100.0
62458;BME280;48509;52.122;5.250;2023-05-11T01:14:04;101427.0;;;13.8;100.0
62458;BME280;48509;52.122;5.250;2023-05-11T01:15:51;101430.0;;;13.83;100.0
62458;BME280;48509;52.122;5.250;2023-05-11T01:17:45;101430.0;;;14.06;100.0
62458;BME280;48509;52.122;5.250;2023-05-11T01:21:20;101430.0;;;14.25;100.0
62458;BME280;48509;52.122;5.250;2023-05-11T01:23:15;101425.0;;;14.25;100.0
62458;BME280;48509;52.122;5.250;2023-05-11T01:25:30;101423.0;;;14.06;100.0
62458;BME280;48509;52.122;5.250;2023-05-11T01:27:31;101421.0;;;13.83;100.0
62458;BME280;48509;52.122;5.250;2023-05-11T01:30:42;101424.0;;;13.74;100.0
62458;BME280;48509;52.122;5.250;2023-05-11T01:32:25;101427.0;;;13.79;100.0
62458;BME280;48509;52.122;5.250;2023-05-11T01:35:49;101430.0;;;13.76;100.0
62458;BME280;48509;52.122;5.250;2023-05-11T01:37:26;101425.0;;;13.67;100.0
62458;BME280;48509;52.122;5.250;2023-05-11T01:39:08;101425.0;;;13.62;100.0
62458;BME280;48509;52.122;5.250;2023-05-11T01:40:50;101427.0;;;13.58;100.0
62458;BME280;48509;52.122;5.250;2023-05-11T01:42:43;101427.0;;;13.57;100.0
62458;BME280;48509;52.122;5.250;2023-05-11T01:46:07;101430.0;;;13.56;100.0
62458;BME280;48509;52.122;5.250;2023-05-11T01:47:48;101430.0;;;13.77;100.0
62458;BME280;48509;52.122;5.250;2023-05-11T01:49:25;101428.0;;;13.68;100.0
62458;BME280;48509;52.122;5.250;2023-05-11T01:51:03;101426.0;;;13.58;100.0
62458;BME280;48509;52.122;5.250;2023-05-11T01:54:19;101428.0;;;13.65;100.0
62458;BME280;48509;52.122;5.250;2023-05-11T01:55:57;101430.0;;;13.69;100.0
62458;BME280;48509;52.122;5.250;2023-05-11T01:57:35;101435.0;;;13.63;100.0
62458;BME280;48509;52.122;5.250;2023-05-11T01:59:13;101435.0;;;13.64;100.0
62458;BME280;48509;52.122;5.250;2023-05-11T02:02:29;101439.0;;;13.58;100.0
62458;BME280;48509;52.122;5.250;2023-05-11T02:04:08;101441.0;;;13.58;100.0
62458;BME280;48509;52.122;5.250;2023-05-11T02:05:46;101442.0;;;13.53;100.0
62458;BME280;48509;52.122;5.250;2023-05-11T02:09:01;101441.0;;;13.69;100.0
62458;BME280;48509;52.122;5.250;2023-05-11T02:10:38;101443.0;;;13.73;100.0
62458;BME280;48509;52.122;5.250;2023-05-11T02:12:17;101442.0;;;13.57;100.0
62458;BME280;48509;52.122;5.250;2023-05-11T02:13:57;101446.0;;;13.5;100.0
62458;BME280;48509;52.122;5.250;2023-05-11T02:17:15;101453.0;;;13.45;100.0
62458;BME280;48509;52.122;5.250;2023-05-11T02:18:54;101452.0;;;13.45;100.0
62458;BME280;48509;52.122;5.250;2023-05-11T02:20:32;101456.0;;;13.43;100.0
62458;BME280;48509;52.122;5.250;2023-05-11T02:23:48;101451.0;;;13.46;100.0
62458;BME280;48509;52.122;5.250;2023-05-11T02:25:26;101449.0;;;13.48;100.0
62458;BME280;48509;52.122;5.250;2023-05-11T02:27:04;101449.0;;;13.56;100.0
62458;BME280;48509;52.122;5.250;2023-05-11T02:28:40;101452.0;;;13.6;100.0
62458;BME280;48509;52.122;5.250;2023-05-11T02:31:56;101451.0;;;13.68;100.0
62458;BME280;48509;52.122;5.250;2023-05-11T02:33:38;101448.0;;;13.59;100.0
62458;BME280;48509;52.122;5.250;2023-05-11T02:35:22;101449.0;;;13.62;100.0
62458;BME280;48509;52.122;5.250;2023-05-11T02:37:01;101449.0;;;13.79;100.0
62458;BME280;48509;52.122;5.250;2023-05-11T02:40:24;101448.0;;;13.75;100.0
62458;BME280;48509;52.122;5.250;2023-05-11T02:42:09;101451.0;;;13.64;100.0
62458;BME280;48509;52.122;5.250;2023-05-11T02:43:54;101453.0;;;13.55;100.0
62458;BME280;48509;52.122;5.250;2023-05-11T02:45:34;101452.0;;;13.51;100.0
62458;BME280;48509;52.122;5.250;2023-05-11T02:48:55;101455.0;;;13.52;100.0
62458;BME280;48509;52.122;5.250;2023-05-11T02:50:35;101461.0;;;13.5;100.0
62458;BME280;48509;52.122;5.250;2023-05-11T02:52:14;101456.0;;;13.61;100.0
62458;BME280;48509;52.122;5.250;2023-05-11T02:53:54;101459.0;;;13.55;100.0
62458;BME280;48509;52.122;5.250;2023-05-11T02:57:09;101457.0;;;13.49;100.0
62458;BME280;48509;52.122;5.250;2023-05-11T02:58:46;101452.0;;;13.45;100.0
62458;BME280;48509;52.122;5.250;2023-05-11T03:00:23;101455.0;;;13.46;100.0
62458;BME280;48509;52.122;5.250;2023-05-11T03:01:59;101456.0;;;13.49;100.0
62458;BME280;48509;52.122;5.250;2023-05-11T03:05:11;101448.0;;;13.66;100.0
62458;BME280;48509;52.122;5.250;2023-05-11T03:06:47;101448.0;;;13.67;100.0
62458;BME280;48509;52.122;5.250;2023-05-11T03:08:24;101448.0;;;13.75;100.0
62458;BME280;48509;52.122;5.250;2023-05-11T03:11:37;101449.0;;;13.58;100.0
62458;BME280;48509;52.122;5.250;2023-05-11T03:13:13;101445.0;;;13.54;100.0
62458;BME280;48509;52.122;5.250;2023-05-11T03:14:50;101447.0;;;13.44;100.0
62458;BME280;48509;52.122;5.250;2023-05-11T03:18:05;101446.0;;;13.35;100.0
62458;BME280;48509;52.122;5.250;2023-05-11T03:19:41;101448.0;;;13.34;100.0
62458;BME280;48509;52.122;5.250;2023-05-11T03:21:18;101449.0;;;13.51;100.0
62458;BME280;48509;52.122;5.250;2023-05-11T03:22:55;101451.0;;;13.47;100.0
62458;BME280;48509;52.122;5.250;2023-05-11T03:26:09;101448.0;;;13.32;100.0
62458;BME280;48509;52.122;5.250;2023-05-11T03:27:46;101449.0;;;13.21;100.0
62458;BME280;48509;52.122;5.250;2023-05-11T03:29:26;101446.0;;;13.26;100.0
62458;BME280;48509;52.122;5.250;2023-05-11T03:32:41;101443.0;;;13.42;100.0
62458;BME280;48509;52.122;5.250;2023-05-11T03:34:17;101443.0;;;13.22;100.0
62458;BME280;48509;52.122;5.250;2023-05-11T03:35:54;101442.0;;;13.16;100.0
62458;BME280;48509;52.122;5.250;2023-05-11T03:39:10;101436.0;;;13.12;100.0
62458;BME280;48509;52.122;5.250;2023-05-11T03:40:51;101435.0;;;13.16;100.0
62458;BME280;48509;52.122;5.250;2023-05-11T03:42:28;101435.0;;;13.22;100.0
62458;BME280;48509;52.122;5.250;2023-05-11T03:44:10;101433.0;;;13.09;100.0
62458;BME280;48509;52.122;5.250;2023-05-11T03:47:28;101427.0;;;13.12;100.0
62458;BME280;48509;52.122;5.250;2023-05-11T03:49:05;101425.0;;;13.14;100.0
62458;BME280;48509;52.122;5.250;2023-05-11T03:50:43;101428.0;;;13.11;100.0
62458;BME280;48509;52.122;5.250;2023-05-11T03:52:19;101430.0;;;13.12;100.0
62458;BME280;48509;52.122;5.250;2023-05-11T03:55:33;101426.0;;;13.06;100.0
62458;BME280;48509;52.122;5.250;2023-05-11T03:57:09;101424.0;;;13.05;100.0
62458;BME280;48509;52.122;5.250;2023-05-11T03:58:45;101421.0;;;13.03;100.0
62458;BME280;48509;52.122;5.250;2023-05-11T04:01:57;101425.0;;;13.19;100.0
62458;BME280;48509;52.122;5.250;2023-05-11T04:03:34;101424.0;;;13.11;100.0
62458;BME280;48509;52.122;5.250;2023-05-11T04:05:10;101430.0;;;13.09;100.0
62458;BME280;48509;52.122;5.250;2023-05-11T04:08:23;101428.0;;;13.27;100.0
62458;BME280;48509;52.122;5.250;2023-05-11T04:09:59;101432.0;;;13.28;100.0
62458;BME280;48509;52.122;5.250;2023-05-11T04:11:35;101434.0;;;13.2;100.0
62458;BME280;48509;52.122;5.250;2023-05-11T04:13:11;101433.0;;;13.11;100.0
62458;BME280;48509;52.122;5.250;2023-05-11T04:16:24;101438.0;;;13.06;100.0
62458;BME280;48509;52.122;5.250;2023-05-11T04:18:00;101439.0;;;13.04;100.0
62458;BME280;48509;52.122;5.250;2023-05-11T04:19:36;101443.0;;;13.02;100.0
62458;BME280;48509;52.122;5.250;2023-05-11T04:22:48;101441.0;;;12.99;100.0
62458;BME280;48509;52.122;5.250;2023-05-11T04:24:24;101444.0;;;13.03;100.0
62458;BME280;48509;52.122;5.250;2023-05-11T04:26:01;101444.0;;;13.23;100.0
62458;BME280;48509;52.122;5.250;2023-05-11T04:29:13;101447.0;;;13.27;100.0
62458;BME280;48509;52.122;5.250;2023-05-11T04:30:51;101448.0;;;13.24;100.0
62458;BME280;48509;52.122;5.250;2023-05-11T04:32:27;101446.0;;;13.26;100.0
62458;BME280;48509;52.122;5.250;2023-05-11T04:34:05;101451.0;;;13.29;100.0
62458;BME280;48509;52.122;5.250;2023-05-11T04:37:18;101448.0;;;13.3;100.0
62458;BME280;48509;52.122;5.250;2023-05-11T04:38:54;101448.0;;;13.33;100.0
62458;BME280;48509;52.122;5.250;2023-05-11T04:40:30;101446.0;;;13.51;100.0
62458;BME280;48509;52.122;5.250;2023-05-11T04:43:42;101447.0;;;13.76;100.0
62458;BME280;48509;52.122;5.250;2023-05-11T04:45:18;101446.0;;;13.8;100.0
62458;BME280;48509;52.122;5.250;2023-05-11T04:46:55;101453.0;;;13.56;100.0
62458;BME280;48509;52.122;5.250;2023-05-11T04:50:08;101456.0;;;13.5;100.0
62458;BME280;48509;52.122;5.250;2023-05-11T04:51:45;101455.0;;;13.59;100.0
62458;BME280;48509;52.122;5.250;2023-05-11T04:53:22;101462.0;;;13.54;100.0
62458;BME280;48509;52.122;5.250;2023-05-11T04:54:58;101455.0;;;13.57;100.0
62458;BME280;48509;52.122;5.250;2023-05-11T04:58:11;101462.0;;;13.57;100.0
62458;BME280;48509;52.122;5.250;2023-05-11T04:59:47;101458.0;;;13.65;100.0
62458;BME280;48509;52.122;5.250;2023-05-11T05:01:23;101459.0;;;13.71;100.0
62458;BME280;48509;52.122;5.250;2023-05-11T05:04:35;101463.0;;;13.68;100.0
62458;BME280;48509;52.122;5.250;2023-05-11T05:06:11;101470.0;;;13.64;100.0
62458;BME280;48509;52.122;5.250;2023-05-11T05:07:47;101470.0;;;13.64;100.0
62458;BME280;48509;52.122;5.250;2023-05-11T05:11:00;101467.0;;;13.83;100.0
62458;BME280;48509;52.122;5.250;2023-05-11T05:12:36;101469.0;;;13.8;100.0
62458;BME280;48509;52.122;5.250;2023-05-11T05:14:12;101471.0;;;13.99;100.0
62458;BME280;48509;52.122;5.250;2023-05-11T05:17:24;101468.0;;;14.12;100.0
62458;BME280;48509;52.122;5.250;2023-05-11T05:19:01;101468.0;;;14.04;100.0
62458;BME280;48509;52.122;5.250;2023-05-11T05:22:13;101469.0;;;14.01;100.0
62458;BME280;48509;52.122;5.250;2023-05-11T05:25:25;101468.0;;;13.91;100.0
62458;BME280;48509;52.122;5.250;2023-05-11T05:27:01;101470.0;;;14.01;100.0
62458;BME280;48509;52.122;5.250;2023-05-11T05:28:37;101467.0;;;14.06;100.0
62458;BME280;48509;52.122;5.250;2023-05-11T05:31:50;101470.0;;;14.23;100.0
62458;BME280;48509;52.122;5.250;2023-05-11T05:35:03;101477.0;;;14.15;100.0
62458;BME280;48509;52.122;5.250;2023-05-11T05:38:15;101476.0;;;14.12;100.0
62458;BME280;48509;52.122;5.250;2023-05-11T05:39:51;101481.0;;;14.26;100.0
62458;BME280;48509;52.122;5.250;2023-05-11T05:41:28;101483.0;;;14.32;100.0
62458;BME280;48509;52.122;5.250;2023-05-11T05:43:04;101486.0;;;14.24;100.0
62458;BME280;48509;52.122;5.250;2023-05-11T05:46:16;101489.0;;;14.32;100.0
62458;BME280;48509;52.122;5.250;2023-05-11T05:47:52;101491.0;;;14.31;100.0
62458;BME280;48509;52.122;5.250;2023-05-11T05:49:28;101492.0;;;14.28;100.0
62458;BME280;48509;52.122;5.250;2023-05-11T05:52:41;101495.0;;;14.29;100.0
62458;BME280;48509;52.122;5.250;2023-05-11T05:54:17;101497.0;;;14.33;100.0
62458;BME280;48509;52.122;5.250;2023-05-11T05:55:53;101494.0;;;14.52;100.0
62458;BME280;48509;52.122;5.250;2023-05-11T05:59:06;101500.0;;;14.73;100.0
62458;BME280;48509;52.122;5.250;2023-05-11T06:00:41;101501.0;;;14.84;100.0
62458;BME280;48509;52.122;5.250;2023-05-11T06:02:18;101507.0;;;14.8;100.0
62458;BME280;48509;52.122;5.250;2023-05-11T06:05:30;101507.0;;;14.77;100.0
62458;BME280;48509;52.122;5.250;2023-05-11T06:07:06;101513.0;;;14.85;100.0
62458;BME280;48509;52.122;5.250;2023-05-11T06:08:42;101511.0;;;14.72;100.0
62458;BME280;48509;52.122;5.250;2023-05-11T06:10:18;101511.0;;;14.8;100.0
62458;BME280;48509;52.122;5.250;2023-05-11T06:13:31;101508.0;;;14.93;100.0
62458;BME280;48509;52.122;5.250;2023-05-11T06:15:07;101509.0;;;14.89;100.0
62458;BME280;48509;52.122;5.250;2023-05-11T06:16:44;101507.0;;;14.87;100.0
62458;BME280;48509;52.122;5.250;2023-05-11T06:19:56;101512.0;;;14.82;100.0
62458;BME280;48509;52.122;5.250;2023-05-11T06:21:32;101513.0;;;14.83;100.0
62458;BME280;48509;52.122;5.250;2023-05-11T06:23:08;101516.0;;;14.84;100.0
62458;BME280;48509;52.122;5.250;2023-05-11T06:26:21;101515.0;;;14.91;100.0
62458;BME280;48509;52.122;5.250;2023-05-11T06:27:58;101515.0;;;14.91;100.0
62458;BME280;48509;52.122;5.250;2023-05-11T06:29:34;101518.0;;;14.92;100.0
62458;BME280;48509;52.122;5.250;2023-05-11T06:31:10;101519.0;;;15.02;100.0
62458;BME280;48509;52.122;5.250;2023-05-11T06:34:23;101523.0;;;15.24;100.0
62458;BME280;48509;52.122;5.250;2023-05-11T06:36:02;101518.0;;;15.35;100.0
62458;BME280;48509;52.122;5.250;2023-05-11T06:37:39;101524.0;;;15.56;100.0
62458;BME280;48509;52.122;5.250;2023-05-11T06:40:51;101523.0;;;15.56;100.0
62458;BME280;48509;52.122;5.250;2023-05-11T06:42:27;101526.0;;;15.4;100.0
62458;BME280;48509;52.122;5.250;2023-05-11T06:44:04;101524.0;;;15.43;100.0
62458;BME280;48509;52.122;5.250;2023-05-11T06:47:18;101528.0;;;15.25;100.0
62458;BME280;48509;52.122;5.250;2023-05-11T06:48:54;101530.0;;;15.41;100.0
62458;BME280;48509;52.122;5.250;2023-05-11T06:50:30;101530.0;;;15.56;100.0
62458;BME280;48509;52.122;5.250;2023-05-11T06:52:06;101532.0;;;15.57;100.0
62458;BME280;48509;52.122;5.250;2023-05-11T06:55:20;101533.0;;;15.52;100.0
62458;BME280;48509;52.122;5.250;2023-05-11T06:56:56;101534.0;;;15.39;100.0
62458;BME280;48509;52.122;5.250;2023-05-11T06:58:32;101542.0;;;15.7;100.0
62458;BME280;48509;52.122;5.250;2023-05-11T07:01:45;101541.0;;;15.64;100.0
62458;BME280;48509;52.122;5.250;2023-05-11T07:03:21;101537.0;;;15.51;100.0
62458;BME280;48509;52.122;5.250;2023-05-11T07:04:58;101538.0;;;15.39;100.0
62458;BME280;48509;52.122;5.250;2023-05-11T07:08:10;101538.0;;;15.48;100.0
62458;BME280;48509;52.122;5.250;2023-05-11T07:09:46;101539.0;;;15.43;100.0
62458;BME280;48509;52.122;5.250;2023-05-11T07:11:23;101541.0;;;15.32;100.0
62458;BME280;48509;52.122;5.250;2023-05-11T07:14:35;101536.0;;;15.46;100.0
62458;BME280;48509;52.122;5.250;2023-05-11T07:16:11;101536.0;;;15.36;100.0
62458;BME280;48509;52.122;5.250;2023-05-11T07:17:48;101533.0;;;15.36;100.0
62458;BME280;48509;52.122;5.250;2023-05-11T07:19:24;101535.0;;;15.33;100.0
62458;BME280;48509;52.122;5.250;2023-05-11T07:22:36;101533.0;;;15.6;100.0
62458;BME280;48509;52.122;5.250;2023-05-11T07:24:12;101535.0;;;15.57;100.0
62458;BME280;48509;52.122;5.250;2023-05-11T07:25:48;101537.0;;;15.46;100.0
62458;BME280;48509;52.122;5.250;2023-05-11T07:29:01;101540.0;;;15.43;100.0
62458;BME280;48509;52.122;5.250;2023-05-11T07:30:38;101540.0;;;15.63;100.0
62458;BME280;48509;52.122;5.250;2023-05-11T07:32:14;101540.0;;;15.9;100.0
62458;BME280;48509;52.122;5.250;2023-05-11T07:35:26;101540.0;;;15.84;100.0
62458;BME280;48509;52.122;5.250;2023-05-11T07:37:02;101540.0;;;15.96;100.0
62458;BME280;48509;52.122;5.250;2023-05-11T07:38:38;101537.0;;;16.13;100.0
62458;BME280;48509;52.122;5.250;2023-05-11T07:40:15;101539.0;;;16.11;100.0
62458;BME280;48509;52.122;5.250;2023-05-11T07:43:27;101535.0;;;16.15;100.0
62458;BME280;48509;52.122;5.250;2023-05-11T07:45:03;101535.0;;;16.2;100.0
62458;BME280;48509;52.122;5.250;2023-05-11T07:46:40;101537.0;;;16.29;100.0
62458;BME280;48509;52.122;5.250;2023-05-11T07:49:52;101536.0;;;16.43;100.0
62458;BME280;48509;52.122;5.250;2023-05-11T07:51:28;101533.0;;;16.28;100.0
62458;BME280;48509;52.122;5.250;2023-05-11T07:53:05;101535.0;;;16.5;100.0
62458;BME280;48509;52.122;5.250;2023-05-11T07:56:17;101534.0;;;16.57;98.29
62458;BME280;48509;52.122;5.250;2023-05-11T07:57:53;101533.0;;;16.43;100.0
62458;BME280;48509;52.122;5.250;2023-05-11T07:59:29;101532.0;;;16.53;95.12
62458;BME280;48509;52.122;5.250;2023-05-11T08:02:41;101533.0;;;16.57;96.48
62458;BME280;48509;52.122;5.250;2023-05-11T08:04:17;101535.0;;;16.64;100.0
62458;BME280;48509;52.122;5.250;2023-05-11T08:05:53;101538.0;;;16.7;94.09
62458;BME280;48509;52.122;5.250;2023-05-11T08:07:30;101536.0;;;16.75;93.65
62458;BME280;48509;52.122;5.250;2023-05-11T08:10:42;101527.0;;;16.84;96.73
62458;BME280;48509;52.122;5.250;2023-05-11T08:12:18;101536.0;;;16.78;100.0
62458;BME280;48509;52.122;5.250;2023-05-11T08:13:54;101539.0;;;16.93;98.82
62458;BME280;48509;52.122;5.250;2023-05-11T08:17:06;101538.0;;;16.95;92.31
62458;BME280;48509;52.122;5.250;2023-05-11T08:18:43;101535.0;;;17.03;93.32
62458;BME280;48509;52.122;5.250;2023-05-11T08:20:19;101538.0;;;16.93;99.22
62458;BME280;48509;52.122;5.250;2023-05-11T08:23:31;101543.0;;;16.96;94.82
62458;BME280;48509;52.122;5.250;2023-05-11T08:25:08;101541.0;;;17.11;94.98
62458;BME280;48509;52.122;5.250;2023-05-11T08:26:43;101542.0;;;17.12;89.46
62458;BME280;48509;52.122;5.250;2023-05-11T08:28:20;101545.0;;;17.09;87.17
62458;BME280;48509;52.122;5.250;2023-05-11T08:31:33;101545.0;;;17.13;98.1
62458;BME280;48509;52.122;5.250;2023-05-11T08:33:09;101544.0;;;17.16;93.56
62458;BME280;48509;52.122;5.250;2023-05-11T08:34:45;101540.0;;;17.22;89.29
62458;BME280;48509;52.122;5.250;2023-05-11T08:37:57;101538.0;;;17.34;87.89
62458;BME280;48509;52.122;5.250;2023-05-11T08:39:33;101536.0;;;17.57;92.96
62458;BME280;48509;52.122;5.250;2023-05-11T08:41:11;101535.0;;;17.53;97.45
62458;BME280;48509;52.122;5.250;2023-05-11T08:44:30;101536.0;;;17.59;90.94
62458;BME280;48509;52.122;5.250;2023-05-11T08:46:10;101535.0;;;17.59;89.57
62458;BME280;48509;52.122;5.250;2023-05-11T08:47:48;101538.0;;;17.59;92.29
62458;BME280;48509;52.122;5.250;2023-05-11T08:49:25;101536.0;;;17.55;94.07
62458;BME280;48509;52.122;5.250;2023-05-11T08:52:39;101539.0;;;17.66;89.75
62458;BME280;48509;52.122;5.250;2023-05-11T08:54:16;101541.0;;;17.73;90.34
62458;BME280;48509;52.122;5.250;2023-05-11T08:55:53;101543.0;;;17.52;93.2
62458;BME280;48509;52.122;5.250;2023-05-11T08:59:08;101541.0;;;17.61;92.34
62458;BME280;48509;52.122;5.250;2023-05-11T09:00:48;101541.0;;;17.37;89.81
62458;BME280;48509;52.122;5.250;2023-05-11T09:02:25;101541.0;;;17.55;91.04
62458;BME280;48509;52.122;5.250;2023-05-11T09:04:00;101540.0;;;17.72;87.39
62458;BME280;48509;52.122;5.250;2023-05-11T09:07:15;101540.0;;;17.73;89.37
62458;BME280;48509;52.122;5.250;2023-05-11T09:08:52;101542.0;;;17.72;89.96
62458;BME280;48509;52.122;5.250;2023-05-11T09:10:29;101538.0;;;17.72;91.93
62458;BME280;48509;52.122;5.250;2023-05-11T09:13:42;101538.0;;;17.68;93.1
62458;BME280;48509;52.122;5.250;2023-05-11T09:15:18;101537.0;;;17.66;90.77
62458;BME280;48509;52.122;5.250;2023-05-11T09:16:54;101540.0;;;17.5;92.3
62458;BME280;48509;52.122;5.250;2023-05-11T09:18:32;101543.0;;;17.38;92.23
62458;BME280;48509;52.122;5.250;2023-05-11T09:21:46;101542.0;;;17.5;91.61
62458;BME280;48509;52.122;5.250;2023-05-11T09:23:24;101542.0;;;17.34;94.11
62458;BME280;48509;52.122;5.250;2023-05-11T09:25:01;101543.0;;;17.47;96.08
62458;BME280;48509;52.122;5.250;2023-05-11T09:28:14;101545.0;;;17.46;94.79
62458;BME280;48509;52.122;5.250;2023-05-11T09:29:55;101547.0;;;17.62;91.36
62458;BME280;48509;52.122;5.250;2023-05-11T09:31:39;101541.0;;;17.52;91.3
62458;BME280;48509;52.122;5.250;2023-05-11T09:33:21;101544.0;;;17.71;84.81
62458;BME280;48509;52.122;5.250;2023-05-11T09:36:53;101541.0;;;17.61;91.34
62458;BME280;48509;52.122;5.250;2023-05-11T09:38:30;101541.0;;;17.41;96.42
62458;BME280;48509;52.122;5.250;2023-05-11T09:40:09;101543.0;;;17.54;93.61
62458;BME280;48509;52.122;5.250;2023-05-11T09:41:46;101543.0;;;17.8;88.78
62458;BME280;48509;52.122;5.250;2023-05-11T09:45:01;101543.0;;;17.86;88.65
62458;BME280;48509;52.122;5.250;2023-05-11T09:46:38;101548.0;;;18.04;82.41
62458;BME280;48509;52.122;5.250;2023-05-11T09:48:24;101549.0;;;18.09;80.05
62458;BME280;48509;52.122;5.250;2023-05-11T09:50:14;101550.0;;;17.91;80.38
62458;BME280;48509;52.122;5.250;2023-05-11T09:53:37;101548.0;;;17.72;80.49
62458;BME280;48509;52.122;5.250;2023-05-11T09:55:15;101548.0;;;17.89;82.33
62458;BME280;48509;52.122;5.250;2023-05-11T09:56:54;101547.0;;;17.56;84.81
62458;BME280;48509;52.122;5.250;2023-05-11T09:58:48;101543.0;;;17.59;90.88
62458;BME280;48509;52.122;5.250;2023-05-11T10:00:25;101547.0;;;17.75;82.72
62458;BME280;48509;52.122;5.250;2023-05-11T10:03:54;101546.0;;;17.86;84.78
62458;BME280;48509;52.122;5.250;2023-05-11T10:05:32;101546.0;;;18.09;80.83
62458;BME280;48509;52.122;5.250;2023-05-11T10:07:22;101545.0;;;18.02;81.3
62458;BME280;48509;52.122;5.250;2023-05-11T10:09:07;101543.0;;;18.14;82.68
62458;BME280;48509;52.122;5.250;2023-05-11T10:12:22;101545.0;;;18.14;81.13
62458;BME280;48509;52.122;5.250;2023-05-11T10:13:59;101547.0;;;18.28;82.26
62458;BME280;48509;52.122;5.250;2023-05-11T10:15:35;101543.0;;;18.13;86.16
62458;BME280;48509;52.122;5.250;2023-05-11T10:17:12;101542.0;;;17.81;84.57
62458;BME280;48509;52.122;5.250;2023-05-11T10:20:26;101546.0;;;17.93;85.93
62458;BME280;48509;52.122;5.250;2023-05-11T10:22:04;101545.0;;;18.21;83.77
62458;BME280;48509;52.122;5.250;2023-05-11T10:23:41;101545.0;;;18.09;84.33
62458;BME280;48509;52.122;5.250;2023-05-11T10:26:57;101542.0;;;18.0;84.43
62458;BME280;48509;52.122;5.250;2023-05-11T10:28:34;101543.0;;;18.09;89.65
62458;BME280;48509;52.122;5.250;2023-05-11T10:30:11;101547.0;;;18.09;89.27
62458;BME280;48509;52.122;5.250;2023-05-11T10:31:48;101544.0;;;18.11;82.73
62458;BME280;48509;52.122;5.250;2023-05-11T10:35:02;101545.0;;;17.95;85.69
62458;BME280;48509;52.122;5.250;2023-05-11T10:36:39;101545.0;;;18.04;90.23
62458;BME280;48509;52.122;5.250;2023-05-11T10:38:16;101542.0;;;18.2;85.37
62458;BME280;48509;52.122;5.250;2023-05-11T10:41:39;101536.0;;;18.07;84.73
62458;BME280;48509;52.122;5.250;2023-05-11T10:43:51;101540.0;;;18.02;81.77
62458;BME280;48509;52.122;5.250;2023-05-11T10:45:46;101542.0;;;17.98;80.44
62458;BME280;48509;52.122;5.250;2023-05-11T10:48:23;101543.0;;;18.25;82.34
62458;BME280;48509;52.122;5.250;2023-05-11T10:50:28;101537.0;;;18.37;79.78
62458;BME280;48509;52.122;5.250;2023-05-11T10:52:24;101541.0;;;18.55;81.64
62458;BME280;48509;52.122;5.250;2023-05-11T10:54:28;101543.0;;;18.25;85.87
62458;BME280;48509;52.122;5.250;2023-05-11T10:56:19;101541.0;;;18.23;84.02
62458;BME280;48509;52.122;5.250;2023-05-11T10:58:18;101538.0;;;18.36;85.08
62458;BME280;48509;52.122;5.250;2023-05-11T11:00:11;101538.0;;;18.59;83.56
62458;BME280;48509;52.122;5.250;2023-05-11T11:03:56;101543.0;;;18.93;80.49
62458;BME280;48509;52.122;5.250;2023-05-11T11:05:34;101540.0;;;18.91;83.83
62458;BME280;48509;52.122;5.250;2023-05-11T11:08:55;101546.0;;;18.66;82.37
62458;BME280;48509;52.122;5.250;2023-05-11T11:10:33;101548.0;;;18.53;85.61
62458;BME280;48509;52.122;5.250;2023-05-11T11:12:10;101553.0;;;18.62;84.17
62458;BME280;48509;52.122;5.250;2023-05-11T11:13:55;101559.0;;;18.28;86.93